Time;durP1;ratioP1;P1;durP2;ratioP2;P2;SDS_P1;SDS_P2;PMS_P1;PMS_P2;Temp;Humidity;BMP_temperature;BMP_pressure;BME280_temperature;BME280_humidity;BME280_pressure;Samples;Min_cycle;Max_cycle;Signal;HPM_P1;HPM_P2
2024/01/12 00:00:16;;;;;;;47.33;24.50;;;2.60;1.00;;;;;;5012412;28;20187;-90
2024/01/12 00:02:41;;;;;;;41.87;23.70;;;2.60;1.00;;;;;;5013694;28;20183;-89
2024/01/12 00:05:08;;;;;;;43.93;23.80;;;2.60;1.00;;;;;;5012767;28;20206;-90
2024/01/12 00:07:33;;;;;;;40.95;23.13;;;2.60;70.90;;;;;;5020295;28;20222;-89
2024/01/12 00:09:59;;;;;;;43.50;24.07;;;2.60;99.90;;;;;;5014584;28;20789;-89
2024/01/12 00:12:25;;;;;;;40.17;23.60;;;2.60;99.90;;;;;;5008564;28;20241;-89
2024/01/12 00:14:50;;;;;;;39.33;24.40;;;2.50;99.90;;;;;;5012985;28;20211;-87
2024/01/12 00:17:18;;;;;;;40.17;24.03;;;2.40;99.90;;;;;;5012872;28;20218;-90
2024/01/12 00:19:45;;;;;;;41.47;24.65;;;2.30;99.90;;;;;;5009857;28;20176;-89
2024/01/12 00:22:10;;;;;;;48.38;25.58;;;2.30;29.90;;;;;;4998249;28;20226;-89
2024/01/12 00:24:36;;;;;;;42.23;24.10;;;2.30;99.90;;;;;;5013282;28;20183;-89
2024/01/12 00:27:01;;;;;;;47.00;26.10;;;2.40;99.90;;;;;;5017685;28;20237;-90
2024/01/12 00:29:27;;;;;;;42.37;26.70;;;2.40;99.90;;;;;;5025071;28;20184;-90
2024/01/12 00:31:53;;;;;;;45.87;25.10;;;2.40;1.00;;;;;;5012514;28;20291;-90
2024/01/12 00:34:18;;;;;;;41.38;22.88;;;2.50;1.00;;;;;;5030048;28;20278;-90
2024/01/12 00:36:46;;;;;;;39.77;22.33;;;2.50;1.00;;;;;;5027533;28;20302;-90
2024/01/12 00:39:12;;;;;;;39.00;23.55;;;2.60;1.00;;;;;;5015895;28;20602;-89
2024/01/12 00:41:37;;;;;;;42.23;23.23;;;2.60;1.00;;;;;;5001180;28;20223;-90
2024/01/12 00:44:04;;;;;;;43.90;23.00;;;2.60;99.90;;;;;;5021632;28;20194;-89
2024/01/12 00:46:31;;;;;;;40.28;23.80;;;2.60;1.00;;;;;;5009235;28;20265;-90
2024/01/12 00:48:56;;;;;;;42.17;22.95;;;2.60;1.00;;;;;;5008630;28;20192;-89
2024/01/12 00:51:22;;;;;;;38.60;22.80;;;2.60;1.00;;;;;;5015549;28;20191;-89
2024/01/12 00:53:47;;;;;;;41.50;23.23;;;2.60;1.00;;;;;;5013113;28;20199;-89
2024/01/12 00:56:13;;;;;;;40.23;23.70;;;2.50;1.00;;;;;;5015434;28;20230;-90
2024/01/12 00:58:38;;;;;;;37.80;24.67;;;2.50;99.90;;;;;;5008491;28;20183;-90
2024/01/12 01:01:04;;;;;;;43.97;23.80;;;2.50;1.00;;;;;;5004230;28;20709;-90
2024/01/12 01:03:29;;;;;;;46.33;24.27;;;2.50;1.00;;;;;;5005313;28;20678;-90
2024/01/12 01:05:55;;;;;;;39.47;23.20;;;2.60;1.00;;;;;;5014245;28;20211;-89
2024/01/12 01:08:20;;;;;;;41.80;24.63;;;2.60;1.00;;;;;;5015356;28;20712;-89
2024/01/12 01:10:46;;;;;;;47.97;25.20;;;2.70;49.60;;;;;;5005248;28;20191;-89
2024/01/12 01:13:13;;;;;;;42.63;21.80;;;2.70;1.00;;;;;;5016601;28;20176;-89
2024/01/12 01:15:38;;;;;;;41.45;23.77;;;2.70;1.00;;;;;;5014975;28;20781;-89
2024/01/12 01:18:04;;;;;;;45.00;24.03;;;2.70;1.00;;;;;;5015561;28;20237;-89
2024/01/12 01:20:31;;;;;;;42.30;24.97;;;2.70;99.90;;;;;;5016648;28;20215;-89
2024/01/12 01:22:56;;;;;;;45.65;25.70;;;2.70;1.00;;;;;;5016052;28;20222;-89
2024/01/12 01:25:22;;;;;;;43.10;24.60;;;2.70;1.00;;;;;;5007927;28;20670;-90
2024/01/12 01:27:47;;;;;;;51.03;25.40;;;2.70;1.00;;;;;;5015404;28;20188;-90
2024/01/12 01:30:14;;;;;;;46.10;25.33;;;2.80;99.90;;;;;;5006306;28;20719;-90
2024/01/12 01:32:39;;;;;;;44.95;25.48;;;2.70;1.00;;;;;;5031345;28;20199;-89
2024/01/12 01:35:05;;;;;;;50.00;25.73;;;2.60;1.00;;;;;;5006810;28;20218;-88
2024/01/12 01:37:30;;;;;;;41.77;24.57;;;2.60;1.00;;;;;;5015718;28;20579;-89
2024/01/12 01:39:56;;;;;;;44.37;25.60;;;2.60;1.00;;;;;;5012795;28;20183;-90
2024/01/12 01:42:22;;;;;;;40.43;23.30;;;2.70;99.90;;;;;;5011225;28;20172;-88
2024/01/12 01:44:47;;;;;;;48.50;25.37;;;2.70;99.90;;;;;;5011428;28;20518;-89
2024/01/12 01:47:14;;;;;;;50.80;27.10;;;2.60;99.90;;;;;;5031128;28;20183;-89
2024/01/12 01:49:40;;;;;;;47.35;27.45;;;2.70;99.90;;;;;;5028271;28;20255;-90
2024/01/12 01:52:08;;;;;;;59.25;27.13;;;2.70;1.00;;;;;;5030755;28;20657;-88
2024/01/12 01:54:34;;;;;;;50.58;27.52;;;2.70;99.90;;;;;;5015530;28;20195;-89
2024/01/12 01:57:00;;;;;;;54.53;26.77;;;2.70;99.90;;;;;;5015254;28;20218;-89
2024/01/12 01:59:26;;;;;;;40.87;24.40;;;2.70;99.90;;;;;;5018607;28;20176;-89
2024/01/12 02:01:51;;;;;;;43.28;23.98;;;2.80;99.90;;;;;;5014918;28;20183;-89
2024/01/12 02:04:17;;;;;;;48.07;25.37;;;2.80;99.90;;;;;;5015101;28;20563;-90
2024/01/12 02:06:43;;;;;;;50.40;26.87;;;2.80;88.70;;;;;;5012035;28;20216;-89
2024/01/12 02:09:09;;;;;;;42.53;24.33;;;2.80;6.40;;;;;;5012235;28;20188;-90
2024/01/12 02:11:34;;;;;;;51.60;27.52;;;2.70;1.00;;;;;;5002121;28;20584;-89
2024/01/12 02:14:06;;;;;;;47.40;25.97;;;2.60;99.90;;;;;;5028486;28;20187;-89
2024/01/12 02:16:32;;;;;;;52.05;27.33;;;2.60;99.90;;;;;;5009096;28;20211;-89
2024/01/12 02:18:57;;;;;;;49.90;28.30;;;2.60;1.00;;;;;;5009485;28;20616;-89
2024/01/12 02:21:23;;;;;;;50.10;25.93;;;2.60;10.90;;;;;;5017179;28;20441;-89
2024/01/12 02:23:48;;;;;;;60.10;28.00;;;2.70;91.80;;;;;;5013463;28;20183;-89
2024/01/12 02:26:14;;;;;;;57.90;28.27;;;2.70;99.90;;;;;;5010851;28;20653;-89
2024/01/12 02:28:40;;;;;;;66.37;31.43;;;2.70;99.90;;;;;;5010119;28;20195;-90
2024/01/12 02:31:06;;;;;;;55.30;28.38;;;2.80;99.90;;;;;;5006584;28;20183;-90
2024/01/12 02:33:31;;;;;;;60.97;30.30;;;2.70;95.80;;;;;;5020126;28;20276;-90
2024/01/12 02:35:57;;;;;;;67.67;29.20;;;2.80;1.00;;;;;;5026462;28;20361;-89
2024/01/12 02:38:22;;;;;;;68.10;30.00;;;2.70;99.90;;;;;;5023084;28;20658;-88
2024/01/12 02:40:48;;;;;;;71.30;30.47;;;2.70;99.90;;;;;;5016879;28;20439;-89
2024/01/12 02:43:14;;;;;;;72.93;30.70;;;2.70;99.90;;;;;;5014412;28;20175;-88
2024/01/12 02:45:39;;;;;;;70.60;30.00;;;2.70;1.00;;;;;;5014255;28;20207;-89
2024/01/12 02:48:05;;;;;;;69.20;32.13;;;2.70;1.00;;;;;;5026345;28;20273;-89
2024/01/12 02:50:30;;;;;;;64.50;30.00;;;2.70;1.00;;;;;;4994932;28;20317;-90
2024/01/12 02:52:56;;;;;;;62.47;28.03;;;2.70;1.00;;;;;;5009914;28;20425;-89
2024/01/12 02:55:22;;;;;;;62.47;31.07;;;2.60;97.40;;;;;;5006804;28;20211;-88
2024/01/12 02:57:47;;;;;;;67.10;30.63;;;2.60;99.90;;;;;;5006515;28;20199;-90
2024/01/12 03:00:13;;;;;;;61.00;32.53;;;2.60;99.90;;;;;;5002195;28;20240;-90
2024/01/12 03:02:38;;;;;;;64.25;30.23;;;2.60;99.90;;;;;;5029839;28;20219;-90
2024/01/12 03:05:05;;;;;;;63.87;27.60;;;2.50;99.90;;;;;;5028089;28;20198;-89
2024/01/12 03:07:31;;;;;;;62.13;28.60;;;2.60;1.00;;;;;;5014113;28;20186;-90
2024/01/12 03:09:58;;;;;;;58.83;27.83;;;2.50;1.00;;;;;;5013158;28;20210;-89
2024/01/12 03:12:24;;;;;;;68.07;28.83;;;2.60;1.00;;;;;;5014056;28;20179;-90
2024/01/12 03:14:49;;;;;;;62.07;27.80;;;2.60;1.00;;;;;;5013763;28;20217;-90
2024/01/12 03:17:15;;;;;;;59.77;28.00;;;2.60;1.00;;;;;;5011636;28;20265;-89
2024/01/12 03:19:40;;;;;;;59.97;29.37;;;2.70;1.00;;;;;;5028421;28;20179;-90
2024/01/12 03:22:06;;;;;;;63.60;28.90;;;2.70;1.00;;;;;;5011570;28;20179;-90
2024/01/12 03:24:31;;;;;;;57.37;28.80;;;2.60;1.00;;;;;;5007354;28;20187;-89
2024/01/12 03:26:57;;;;;;;58.17;27.00;;;2.60;1.00;;;;;;5013812;28;20187;-90
2024/01/12 03:29:22;;;;;;;62.90;28.60;;;2.70;1.00;;;;;;5009518;28;20308;-90
2024/01/12 03:31:48;;;;;;;60.90;28.70;;;2.60;1.00;;;;;;5009808;28;20248;-90
2024/01/12 03:34:13;;;;;;;70.87;28.70;;;2.60;1.00;;;;;;5013488;28;20225;-89
2024/01/12 03:36:39;;;;;;;58.93;27.60;;;2.70;1.00;;;;;;5011106;28;20710;-90
2024/01/12 03:39:04;;;;;;;60.90;28.23;;;2.70;1.00;;;;;;5027735;28;20191;-88
2024/01/12 03:41:30;;;;;;;60.30;28.63;;;2.70;1.00;;;;;;5000021;28;20188;-90
2024/01/12 03:43:55;;;;;;;58.33;25.70;;;2.70;1.00;;;;;;5017190;28;20278;-89
2024/01/12 03:46:21;;;;;;;69.53;26.90;;;2.80;1.00;;;;;;5005620;28;20202;-90
2024/01/12 03:48:46;;;;;;;52.20;26.20;;;2.80;1.00;;;;;;5013524;28;20187;-89
2024/01/12 03:51:12;;;;;;;55.47;25.10;;;2.80;1.00;;;;;;5013968;28;20191;-88
2024/01/12 03:53:37;;;;;;;52.07;24.23;;;2.70;1.00;;;;;;5005659;28;20560;-90
2024/01/12 03:56:03;;;;;;;53.10;24.63;;;2.70;1.00;;;;;;5025277;28;20214;-89
2024/01/12 03:58:29;;;;;;;51.90;23.43;;;2.70;1.00;;;;;;4998768;28;20223;-90
2024/01/12 04:00:54;;;;;;;53.10;25.33;;;2.70;1.00;;;;;;5005425;28;20654;-90
2024/01/12 04:03:20;;;;;;;51.63;25.50;;;2.70;1.00;;;;;;5014300;28;20187;-90
2024/01/12 04:05:45;;;;;;;56.50;24.63;;;2.70;1.00;;;;;;5016848;28;20594;-89
2024/01/12 04:08:11;;;;;;;58.67;25.07;;;2.70;21.90;;;;;;5017187;28;20198;-90
2024/01/12 04:10:36;;;;;;;67.50;25.70;;;2.70;35.30;;;;;;5021063;28;20180;-89
2024/01/12 04:13:02;;;;;;;55.50;25.70;;;2.70;24.00;;;;;;5017452;28;20180;-90
2024/01/12 04:15:28;;;;;;;49.70;24.17;;;2.70;37.10;;;;;;5032766;28;20215;-89
2024/01/12 04:17:53;;;;;;;58.27;25.00;;;2.70;33.40;;;;;;5017006;28;20206;-88
2024/01/12 04:20:19;;;;;;;61.00;26.40;;;2.70;53.10;;;;;;5011486;28;20196;-90
2024/01/12 04:22:44;;;;;;;59.80;24.33;;;2.70;89.30;;;;;;5012804;28;20221;-90
2024/01/12 04:25:10;;;;;;;55.53;23.80;;;2.80;87.90;;;;;;5031940;28;20630;-90
2024/01/12 04:27:36;;;;;;;64.80;26.10;;;2.80;96.90;;;;;;5012102;28;20203;-90
2024/01/12 04:30:01;;;;;;;61.83;25.97;;;2.80;99.90;;;;;;5027899;28;20187;-89
2024/01/12 04:32:27;;;;;;;60.80;23.30;;;2.80;50.20;;;;;;5012425;28;20587;-89
2024/01/12 04:34:52;;;;;;;56.70;24.70;;;2.80;1.00;;;;;;5023972;28;20353;-89
2024/01/12 04:37:18;;;;;;;67.20;25.37;;;2.80;24.80;;;;;;5032259;28;20196;-90
2024/01/12 04:39:43;;;;;;;59.50;23.33;;;2.80;17.50;;;;;;5032130;28;20330;-90
2024/01/12 04:42:09;;;;;;;58.97;27.50;;;2.80;23.40;;;;;;5008866;28;20191;-90
2024/01/12 04:44:34;;;;;;;69.87;27.27;;;2.80;39.60;;;;;;5010303;28;20279;-89
2024/01/12 04:47:00;;;;;;;52.70;24.93;;;2.90;21.50;;;;;;5010319;28;20187;-89
2024/01/12 04:49:26;;;;;;;58.43;26.13;;;2.90;12.20;;;;;;5017370;28;20266;-90
2024/01/12 04:51:51;;;;;;;62.03;26.13;;;2.90;1.00;;;;;;5015176;28;20597;-88
2024/01/12 04:54:17;;;;;;;70.20;27.00;;;2.90;1.00;;;;;;5029228;28;20214;-90
2024/01/12 04:56:42;;;;;;;65.50;28.93;;;2.90;1.00;;;;;;5020835;28;20216;-90
2024/01/12 04:59:08;;;;;;;73.13;28.70;;;2.90;1.00;;;;;;5021915;28;20187;-89
2024/01/12 05:01:34;;;;;;;60.93;25.90;;;2.80;1.00;;;;;;5012732;28;20198;-90
2024/01/12 05:04:00;;;;;;;77.93;28.10;;;2.90;1.00;;;;;;5014010;28;20186;-89
2024/01/12 05:06:25;;;;;;;60.17;27.60;;;2.90;1.00;;;;;;5014585;28;20458;-89
2024/01/12 05:08:51;;;;;;;67.23;27.07;;;2.90;1.00;;;;;;5015995;28;20469;-89
2024/01/12 05:11:16;;;;;;;67.73;27.23;;;2.90;1.00;;;;;;5016107;28;20664;-89
2024/01/12 05:13:42;;;;;;;60.97;28.00;;;2.90;1.00;;;;;;5002642;28;20706;-90
2024/01/12 05:16:07;;;;;;;66.20;27.00;;;3.00;1.00;;;;;;5005682;28;20363;-90
2024/01/12 05:18:33;;;;;;;70.00;27.90;;;2.90;1.00;;;;;;5016623;28;20191;-89
2024/01/12 05:20:58;;;;;;;69.50;27.30;;;3.00;1.00;;;;;;5006491;28;20513;-89
2024/01/12 05:23:24;;;;;;;73.30;28.70;;;3.00;1.00;;;;;;5031245;28;20612;-89
2024/01/12 05:25:49;;;;;;;63.00;29.10;;;3.00;1.00;;;;;;5015360;28;20626;-90
2024/01/12 05:28:15;;;;;;;72.27;28.97;;;3.00;1.00;;;;;;5016284;28;20183;-89
2024/01/12 05:30:40;;;;;;;62.93;29.10;;;3.00;1.00;;;;;;5023309;28;20245;-90
2024/01/12 05:33:06;;;;;;;62.17;29.00;;;3.00;1.00;;;;;;5014958;28;20203;-89
2024/01/12 05:35:31;;;;;;;63.87;28.47;;;3.00;1.00;;;;;;5008501;28;20199;-90
2024/01/12 05:37:57;;;;;;;77.30;28.57;;;3.00;1.00;;;;;;5028695;28;20609;-89
2024/01/12 05:40:22;;;;;;;67.17;28.80;;;3.00;1.00;;;;;;5015205;28;20186;-89
2024/01/12 05:42:48;;;;;;;65.67;28.87;;;3.00;1.00;;;;;;5003758;28;20195;-90
2024/01/12 05:45:14;;;;;;;61.83;26.87;;;3.00;1.00;;;;;;5006212;28;20294;-89
2024/01/12 05:47:39;;;;;;;69.40;28.60;;;3.00;1.00;;;;;;5012868;28;20572;-89
2024/01/12 05:50:06;;;;;;;66.00;29.00;;;3.00;1.00;;;;;;5020820;28;20187;-89
2024/01/12 05:52:33;;;;;;;80.75;30.65;;;3.00;1.00;;;;;;5030148;28;20191;-90
2024/01/12 05:54:59;;;;;;;80.47;30.55;;;3.00;1.00;;;;;;5030607;28;20200;-89
2024/01/12 05:57:24;;;;;;;65.27;28.13;;;3.00;1.00;;;;;;5011859;28;20226;-90
2024/01/12 05:59:51;;;;;;;68.47;28.80;;;3.00;1.00;;;;;;5029709;28;20231;-90
2024/01/12 06:02:16;;;;;;;65.40;30.10;;;3.00;1.00;;;;;;5030327;28;20190;-89
2024/01/12 06:04:42;;;;;;;63.13;30.90;;;3.00;1.00;;;;;;5015145;28;20270;-89
2024/01/12 06:07:07;;;;;;;57.07;26.70;;;3.00;1.00;;;;;;5014943;28;20195;-89
2024/01/12 06:09:33;;;;;;;62.70;26.60;;;3.00;1.00;;;;;;5007124;28;20198;-89
2024/01/12 06:11:58;;;;;;;59.40;28.87;;;3.00;1.00;;;;;;5022646;28;20665;-89
2024/01/12 06:14:24;;;;;;;73.97;28.97;;;2.90;1.00;;;;;;5012568;28;20195;-90
2024/01/12 06:16:50;;;;;;;69.20;29.00;;;2.90;1.00;;;;;;5030054;28;20318;-90
2024/01/12 06:19:15;;;;;;;64.43;30.83;;;2.90;1.00;;;;;;5004598;28;20184;-89
2024/01/12 06:21:41;;;;;;;67.60;28.57;;;3.00;1.00;;;;;;5024004;28;20270;-90
2024/01/12 06:24:08;;;;;;;64.55;29.65;;;3.00;1.00;;;;;;5030165;28;20230;-89
2024/01/12 06:26:33;;;;;;;60.97;26.98;;;3.00;1.00;;;;;;5014377;28;20195;-90
2024/01/12 06:28:59;;;;;;;63.07;27.20;;;3.00;1.00;;;;;;5030542;28;20190;-89
2024/01/12 06:31:29;;;;;;;58.60;26.03;;;3.00;1.00;;;;;;5006073;28;20194;-89
2024/01/12 06:33:55;;;;;;;69.03;28.42;;;3.00;1.00;;;;;;5021228;28;20190;-90
2024/01/12 06:36:20;;;;;;;66.80;30.17;;;3.00;1.00;;;;;;5002138;28;20648;-90
2024/01/12 06:38:46;;;;;;;59.73;26.80;;;3.10;1.00;;;;;;5006155;28;20525;-90
2024/01/12 06:41:11;;;;;;;62.20;27.70;;;3.10;1.00;;;;;;5012149;28;20186;-90
2024/01/12 06:43:37;;;;;;;52.70;24.83;;;3.10;1.00;;;;;;5011100;28;20187;-90
2024/01/12 06:46:06;;;;;;;66.93;26.93;;;3.10;1.00;;;;;;4998284;28;20204;-90
2024/01/12 06:48:32;;;;;;;53.97;23.50;;;3.10;1.00;;;;;;5021325;28;20598;-90
2024/01/12 06:50:57;;;;;;;62.73;28.47;;;3.00;1.00;;;;;;5012974;28;20183;-89
2024/01/12 06:53:23;;;;;;;62.20;27.30;;;3.00;1.00;;;;;;5015676;28;20426;-90
2024/01/12 06:55:48;;;;;;;60.27;26.20;;;3.00;1.00;;;;;;5029626;28;20203;-90
2024/01/12 06:58:14;;;;;;;65.93;28.07;;;3.00;1.00;;;;;;5006676;28;20188;-90
2024/01/12 07:00:39;;;;;;;62.23;28.13;;;3.00;1.00;;;;;;5030814;28;20190;-91
2024/01/12 07:03:06;;;;;;;56.83;27.33;;;3.00;1.00;;;;;;5030801;28;20179;-91
2024/01/12 07:05:31;;;;;;;61.10;27.65;;;3.00;1.00;;;;;;5025293;28;20259;-91
2024/01/12 07:07:57;;;;;;;53.87;26.77;;;3.00;1.00;;;;;;5023765;28;20195;-91
2024/01/12 07:10:23;;;;;;;56.73;25.23;;;3.10;1.00;;;;;;5006150;28;20187;-91
2024/01/12 07:12:51;;;;;;;69.10;27.80;;;3.10;1.00;;;;;;5013918;28;20196;-91
2024/01/12 07:15:17;;;;;;;53.28;24.38;;;3.10;1.00;;;;;;5012768;28;20629;-89
2024/01/12 07:17:43;;;;;;;53.63;25.73;;;3.10;1.00;;;;;;5021537;28;20208;-89
2024/01/12 07:20:10;;;;;;;66.30;23.90;;;3.20;1.00;;;;;;5004955;28;20176;-89
2024/01/12 07:22:36;;;;;;;55.88;26.63;;;3.20;1.00;;;;;;5012953;28;20191;-89
2024/01/12 07:25:01;;;;;;;59.63;26.10;;;3.10;99.90;;;;;;5026447;28;20207;-89
2024/01/12 07:27:27;;;;;;;60.47;25.80;;;3.10;99.90;;;;;;5008605;28;20450;-89
2024/01/12 07:29:52;;;;;;;52.43;25.53;;;3.10;1.00;;;;;;5024523;28;20844;-88
2024/01/12 07:32:18;;;;;;;58.23;25.90;;;3.00;1.00;;;;;;5013323;28;20203;-87
2024/01/12 07:34:43;;;;;;;61.27;25.97;;;3.00;1.00;;;;;;5012978;28;20198;-87
2024/01/12 07:37:09;;;;;;;47.63;24.17;;;3.10;1.00;;;;;;5013005;28;20203;-86
2024/01/12 07:39:34;;;;;;;51.33;23.40;;;3.10;1.00;;;;;;5007768;28;20225;-86
2024/01/12 07:42:00;;;;;;;60.13;26.37;;;3.20;1.00;;;;;;5022576;28;20188;-87
2024/01/12 07:44:25;;;;;;;50.20;25.20;;;3.30;1.00;;;;;;5009100;28;20187;-87
2024/01/12 07:46:51;;;;;;;51.57;25.70;;;3.30;1.00;;;;;;5029710;28;20198;-87
2024/01/12 07:49:16;;;;;;;51.50;24.60;;;3.40;1.00;;;;;;5020857;28;20211;-87
2024/01/12 07:51:42;;;;;;;54.60;24.93;;;3.40;1.00;;;;;;5027912;28;20233;-86
2024/01/12 07:54:08;;;;;;;54.03;23.40;;;3.50;1.00;;;;;;5012666;28;20187;-87
2024/01/12 07:56:34;;;;;;;47.33;23.85;;;3.50;1.00;;;;;;5009872;28;20282;-85
2024/01/12 07:59:00;;;;;;;62.47;24.60;;;3.60;99.90;;;;;;5012531;28;20184;-86
2024/01/12 08:01:25;;;;;;;53.53;24.60;;;3.60;99.90;;;;;;5013216;28;20172;-86
2024/01/12 08:03:51;;;;;;;53.27;24.10;;;3.70;99.90;;;;;;5026066;28;20798;-86
2024/01/12 08:06:16;;;;;;;52.23;24.43;;;3.70;49.80;;;;;;5012219;28;20222;-85
2024/01/12 08:08:42;;;;;;;47.97;24.50;;;3.70;93.60;;;;;;5028314;28;20237;-87
2024/01/12 08:11:08;;;;;;;55.23;26.10;;;3.70;1.00;;;;;;5027495;28;20194;-86
2024/01/12 08:13:33;;;;;;;54.80;25.37;;;3.70;1.00;;;;;;5028727;28;20278;-87
2024/01/12 08:15:59;;;;;;;57.50;25.00;;;3.80;1.00;;;;;;5028537;28;20210;-86
2024/01/12 08:18:24;;;;;;;56.47;25.57;;;3.80;1.00;;;;;;5013865;28;20650;-86
2024/01/12 08:20:50;;;;;;;53.03;24.60;;;3.80;1.00;;;;;;5023906;28;20191;-86
2024/01/12 08:23:15;;;;;;;50.07;24.03;;;3.80;99.90;;;;;;5026970;28;20666;-87
2024/01/12 08:25:41;;;;;;;45.67;24.33;;;3.80;99.90;;;;;;5001963;28;20206;-88
2024/01/12 08:28:07;;;;;;;49.80;23.60;;;3.80;99.90;;;;;;5012109;28;20661;-88
2024/01/12 08:30:34;;;;;;;52.70;24.97;;;3.70;99.90;;;;;;5026372;28;20285;-86
2024/01/12 08:33:00;;;;;;;48.70;23.60;;;3.70;99.90;;;;;;5012044;28;20206;-87
2024/01/12 08:35:26;;;;;;;52.47;24.38;;;3.70;99.90;;;;;;5011894;28;20215;-87
2024/01/12 08:37:52;;;;;;;43.47;22.50;;;3.70;1.00;;;;;;5006979;28;20294;-87
2024/01/12 08:40:17;;;;;;;50.13;21.10;;;3.80;99.90;;;;;;5008432;28;20422;-88
2024/01/12 08:42:43;;;;;;;49.87;21.60;;;3.80;99.90;;;;;;5010864;28;20445;-86
2024/01/12 08:45:08;;;;;;;46.17;22.67;;;3.80;1.00;;;;;;5004238;28;20219;-87
2024/01/12 08:47:34;;;;;;;44.37;22.50;;;3.80;99.90;;;;;;5002382;28;20286;-88
2024/01/12 08:50:00;;;;;;;45.33;20.17;;;3.80;99.90;;;;;;5005251;28;20670;-87
2024/01/12 08:52:26;;;;;;;44.28;20.45;;;3.80;99.90;;;;;;5005553;28;20195;-87
2024/01/12 08:54:51;;;;;;;40.90;20.27;;;3.80;99.90;;;;;;5005145;28;20325;-85
2024/01/12 08:57:17;;;;;;;51.80;22.20;;;3.80;99.90;;;;;;5011358;28;20677;-87
2024/01/12 08:59:42;;;;;;;42.60;23.50;;;3.80;99.90;;;;;;5007412;28;20267;-86
2024/01/12 09:02:08;;;;;;;47.13;23.60;;;3.90;90.70;;;;;;5029643;28;20765;-87
2024/01/12 09:04:37;;;;;;;40.80;22.23;;;3.80;1.00;;;;;;5014771;28;20191;-86
2024/01/12 09:07:02;;;;;;;42.65;22.90;;;3.90;49.20;;;;;;5014937;28;20660;-87
2024/01/12 09:09:28;;;;;;;32.00;16.07;;;3.90;99.90;;;;;;5005049;28;20196;-87
2024/01/12 09:11:54;;;;;;;33.83;19.37;;;3.80;99.90;;;;;;5009471;28;20205;-87
2024/01/12 09:14:19;;;;;;;45.83;20.00;;;3.80;99.90;;;;;;5011197;28;20646;-87
2024/01/12 09:16:45;;;;;;;47.07;21.90;;;3.80;43.80;;;;;;5005758;28;20214;-88
2024/01/12 09:19:10;;;;;;;39.73;19.67;;;3.90;1.00;;;;;;5031809;28;20179;-89
2024/01/12 09:21:36;;;;;;;44.97;21.10;;;3.90;2.70;;;;;;5012470;28;20598;-89
2024/01/12 09:24:01;;;;;;;49.00;24.43;;;4.00;1.00;;;;;;5004075;28;20172;-87
2024/01/12 09:26:27;;;;;;;39.33;20.33;;;4.00;1.00;;;;;;5029993;28;20637;-87
2024/01/12 09:28:52;;;;;;;45.70;21.20;;;4.00;1.00;;;;;;5013903;28;20187;-87
2024/01/12 09:31:18;;;;;;;44.77;21.37;;;4.00;1.00;;;;;;5008967;28;20317;-86
2024/01/12 09:33:43;;;;;;;40.80;20.60;;;4.00;1.00;;;;;;5006719;28;20219;-87
2024/01/12 09:36:09;;;;;;;45.47;21.53;;;4.00;1.00;;;;;;5010122;28;20207;-87
2024/01/12 09:38:34;;;;;;;46.83;22.83;;;4.00;99.90;;;;;;5007489;28;20179;-86
2024/01/12 09:41:04;;;;;;;47.00;23.07;;;4.00;99.90;;;;;;5011295;28;20238;-87
2024/01/12 09:43:29;;;;;;;46.63;24.60;;;4.10;1.00;;;;;;5000236;28;20187;-87
2024/01/12 09:46:02;;;;;;;54.83;23.25;;;4.10;99.90;;;;;;5007747;28;20207;-87
2024/01/12 09:48:29;;;;;;;48.03;22.60;;;4.10;99.90;;;;;;5013927;28;20234;-87
2024/01/12 09:50:55;;;;;;;47.67;23.00;;;4.10;99.90;;;;;;5011229;28;20210;-86
2024/01/12 09:53:21;;;;;;;46.25;23.95;;;4.10;99.90;;;;;;5010449;28;20171;-86
2024/01/12 09:55:48;;;;;;;45.77;24.17;;;4.20;99.90;;;;;;5028375;28;20273;-86
2024/01/12 09:58:17;;;;;;;45.65;22.38;;;4.20;27.00;;;;;;5026823;28;20215;-87
2024/01/12 10:00:44;;;;;;;35.47;15.45;;;4.10;99.90;;;;;;5021945;28;20179;-86
2024/01/12 10:03:10;;;;;;;41.05;20.33;;;4.10;1.00;;;;;;5007310;28;20194;-87
2024/01/12 10:05:37;;;;;;;42.67;21.95;;;4.20;1.00;;;;;;5008476;28;20206;-87
2024/01/12 10:08:04;;;;;;;42.55;23.58;;;4.20;1.00;;;;;;5011657;28;20187;-87
2024/01/12 10:10:29;;;;;;;41.65;20.40;;;4.20;1.00;;;;;;5011884;28;20198;-87
2024/01/12 10:12:55;;;;;;;21.60;11.87;;;4.20;1.00;;;;;;5022802;28;20175;-86
2024/01/12 10:15:21;;;;;;;21.03;12.57;;;4.10;99.90;;;;;;5005865;28;20724;-86
2024/01/12 10:17:48;;;;;;;20.30;11.60;;;4.10;99.90;;;;;;5015145;28;20211;-86
2024/01/12 10:20:15;;;;;;;26.17;14.70;;;4.10;99.90;;;;;;5022361;28;20237;-86
2024/01/12 10:22:40;;;;;;;29.40;14.65;;;4.10;99.90;;;;;;5014833;28;20260;-87
2024/01/12 10:25:07;;;;;;;33.40;18.00;;;4.20;99.90;;;;;;5022339;28;20294;-86
2024/01/12 10:27:32;;;;;;;39.00;18.05;;;4.20;82.50;;;;;;5009864;28;20602;-86
2024/01/12 10:29:58;;;;;;;47.37;20.20;;;4.10;99.90;;;;;;5009159;28;20191;-86
2024/01/12 10:32:24;;;;;;;43.17;18.17;;;4.20;99.90;;;;;;5025324;28;20226;-87
2024/01/12 10:34:52;;;;;;;38.97;19.35;;;4.20;99.90;;;;;;5004760;28;20187;-86
2024/01/12 10:37:19;;;;;;;47.67;22.08;;;4.20;99.90;;;;;;5007005;28;20211;-87
2024/01/12 10:39:46;;;;;;;41.35;21.13;;;4.20;99.90;;;;;;4998299;28;20551;-87
2024/01/12 10:42:14;;;;;;;34.90;18.83;;;4.20;99.90;;;;;;5013039;28;20182;-86
2024/01/12 10:44:42;;;;;;;33.50;13.50;;;4.20;99.90;;;;;;5003950;28;20175;-87
2024/01/12 10:47:16;;;;;;;24.10;13.40;;;4.30;21.70;;;;;;5022914;28;20187;-87
2024/01/12 10:49:53;;;;;;;24.85;11.30;;;4.30;1.00;;;;;;5005069;28;20179;-86
2024/01/12 10:52:40;;;;;;;18.77;10.63;;;4.20;1.00;;;;;;5005734;28;20179;-87
2024/01/12 10:55:10;;;;;;;25.05;11.75;;;4.30;1.00;;;;;;5006591;28;20762;-87
2024/01/12 10:57:37;;;;;;;23.48;11.32;;;4.20;1.00;;;;;;5005852;28;20215;-87
2024/01/12 11:00:05;;;;;;;21.10;12.27;;;4.10;1.00;;;;;;5003805;28;20176;-87
2024/01/12 11:02:31;;;;;;;23.90;11.65;;;4.10;1.00;;;;;;5008739;28;20270;-87
2024/01/12 11:04:59;;;;;;;20.75;12.43;;;4.10;99.90;;;;;;5011738;28;20227;-87
2024/01/12 11:07:25;;;;;;;24.98;11.38;;;4.10;99.90;;;;;;5012657;28;20669;-86
2024/01/12 11:09:51;;;;;;;23.77;11.98;;;4.10;99.90;;;;;;4994855;28;20184;-85
2024/01/12 11:12:32;;;;;;;25.97;13.13;;;4.20;99.90;;;;;;5010501;28;20225;-87
2024/01/12 11:14:58;;;;;;;26.70;13.07;;;4.30;99.90;;;;;;5007402;28;20520;-88
2024/01/12 11:17:32;;;;;;;23.90;13.43;;;4.30;99.90;;;;;;5004932;28;20234;-86
2024/01/12 11:20:26;;;;;;;23.48;12.82;;;4.40;1.00;;;;;;5019330;28;20422;-88
2024/01/12 11:22:52;;;;;;;21.60;11.93;;;4.40;1.00;;;;;;5012311;28;20175;-88
2024/01/12 11:25:19;;;;;;;29.80;14.80;;;4.50;1.00;;;;;;5012138;28;20214;-88
2024/01/12 11:27:50;;;;;;;29.88;13.85;;;4.60;99.90;;;;;;5009358;28;20202;-87
2024/01/12 11:30:20;;;;;;;28.73;15.23;;;4.60;27.80;;;;;;5016985;28;20728;-86
2024/01/12 11:32:47;;;;;;;33.15;15.55;;;4.60;5.40;;;;;;5005147;28;20688;-87
2024/01/12 11:35:17;;;;;;;31.67;14.30;;;4.70;1.00;;;;;;5010373;28;20215;-87
2024/01/12 11:37:58;;;;;;;30.95;13.63;;;4.70;1.00;;;;;;5010047;28;20210;-89
2024/01/12 11:40:25;;;;;;;26.10;14.60;;;4.80;1.00;;;;;;5010417;28;20190;-87
2024/01/12 11:42:51;;;;;;;32.25;14.80;;;4.80;99.90;;;;;;4998884;28;20191;-86
2024/01/12 11:45:17;;;;;;;26.88;13.68;;;4.80;99.90;;;;;;5022809;28;20253;-87
2024/01/12 11:47:43;;;;;;;24.88;15.40;;;4.80;99.90;;;;;;5010387;28;20522;-87
2024/01/12 11:50:11;;;;;;;25.88;14.13;;;4.90;99.90;;;;;;5006577;28;20219;-87
2024/01/12 11:52:38;;;;;;;28.08;14.48;;;4.90;99.90;;;;;;5024359;28;20187;-87
2024/01/12 11:55:07;;;;;;;27.65;15.10;;;4.80;99.90;;;;;;5006925;28;20276;-87
2024/01/12 11:57:33;;;;;;;30.42;16.20;;;4.90;99.90;;;;;;5007218;28;20708;-87
2024/01/12 11:59:58;;;;;;;37.10;18.20;;;4.90;99.90;;;;;;5026491;28;20556;-87
2024/01/12 12:02:24;;;;;;;42.57;19.40;;;4.90;99.90;;;;;;5007661;28;20179;-88
2024/01/12 12:04:51;;;;;;;37.77;15.00;;;4.90;99.90;;;;;;5002667;28;20220;-87
2024/01/12 12:07:19;;;;;;;30.45;16.00;;;5.00;99.90;;;;;;5003524;28;20187;-85
2024/01/12 12:09:46;;;;;;;30.60;16.40;;;5.00;53.90;;;;;;5014846;28;20234;-88
2024/01/12 12:12:12;;;;;;;32.55;15.50;;;5.00;81.10;;;;;;5009089;28;20187;-87
2024/01/12 12:14:37;;;;;;;34.17;15.93;;;5.10;79.60;;;;;;5019910;28;20191;-87
2024/01/12 12:17:03;;;;;;;26.27;14.23;;;5.10;1.00;;;;;;5012674;28;20758;-87
2024/01/12 12:19:29;;;;;;;34.30;15.47;;;5.10;1.00;;;;;;5005070;28;20183;-87
2024/01/12 12:21:55;;;;;;;32.03;17.07;;;5.10;1.00;;;;;;5012932;28;20725;-87
2024/01/12 12:24:21;;;;;;;44.90;22.27;;;5.10;1.00;;;;;;5012139;28;20438;-88
2024/01/12 12:26:47;;;;;;;39.83;18.93;;;5.10;1.00;;;;;;5030469;28;20217;-87
2024/01/12 12:29:12;;;;;;;37.97;16.07;;;5.20;1.00;;;;;;5023440;28;20188;-85
2024/01/12 12:31:41;;;;;;;39.30;17.97;;;5.10;1.00;;;;;;5015685;28;20259;-85
2024/01/12 12:34:06;;;;;;;49.20;23.83;;;5.10;1.00;;;;;;5006269;28;20184;-84
2024/01/12 12:36:32;;;;;;;52.27;25.40;;;5.10;1.00;;;;;;4998952;28;20207;-85